createdAt,value
2019-04-07T00:00:26.483Z,75.72
2019-04-07T00:02:53.569Z,75.40
2019-04-07T00:05:21.051Z,75.05
2019-04-07T00:07:49.524Z,74.92
2019-04-07T00:10:16.640Z,74.70
2019-04-07T00:12:44.103Z,74.53
2019-04-07T00:15:11.586Z,74.54
2019-04-07T00:17:39.173Z,74.62
2019-04-07T00:20:07.280Z,74.48
2019-04-07T00:22:34.537Z,74.49
2019-04-07T00:25:02.478Z,74.60
2019-04-07T00:27:29.051Z,74.59
2019-04-07T00:29:56.529Z,74.69
2019-04-07T00:32:24.938Z,74.83
2019-04-07T00:34:51.825Z,74.94
2019-04-07T00:37:18.956Z,75.00
2019-04-07T00:39:46.658Z,75.31
2019-04-07T00:42:13.851Z,75.42
2019-04-07T00:44:41.302Z,75.52
2019-04-07T00:47:08.766Z,75.59
2019-04-07T00:49:36.876Z,75.40
2019-04-07T00:52:06.159Z,75.39
2019-04-07T00:54:33.686Z,75.36
2019-04-07T00:57:01.167Z,75.27
2019-04-07T00:59:28.719Z,76.22
2019-04-07T01:01:56.739Z,75.55
2019-04-07T01:04:24.127Z,76.10
2019-04-07T01:06:51.194Z,76.12
2019-04-07T01:09:18.749Z,75.67
2019-04-07T01:11:46.156Z,75.39
2019-04-07T01:14:13.638Z,75.25
2019-04-07T01:16:41.761Z,75.10
2019-04-07T01:19:08.834Z,75.24
2019-04-07T01:21:36.132Z,75.48
2019-04-07T01:24:03.609Z,75.47
2019-04-07T01:26:31.792Z,75.47
2019-04-07T01:28:59.208Z,75.11
2019-04-07T01:31:26.039Z,74.81
2019-04-07T01:33:53.511Z,74.62
2019-04-07T01:36:21.471Z,74.83
2019-04-07T01:38:48.631Z,74.54
2019-04-07T01:41:21.718Z,74.74
2019-04-07T01:43:53.696Z,74.16
2019-04-07T01:46:22.117Z,74.02
2019-04-07T01:49:05.325Z,74.17
2019-04-07T01:51:42.711Z,74.15
2019-04-07T01:54:11.940Z,74.30
2019-04-07T01:56:55.275Z,74.47
2019-04-07T01:59:37.537Z,74.54
2019-04-07T02:02:10.090Z,74.68
2019-04-07T02:04:41.149Z,74.57
2019-04-07T02:07:12.978Z,74.68
2019-04-07T02:09:55.634Z,74.63
2019-04-07T02:12:32.338Z,74.46
2019-04-07T02:15:00.949Z,74.51
2019-04-07T02:17:33.467Z,74.42
2019-04-07T02:20:06.857Z,74.39
2019-04-07T02:22:53.175Z,74.23
2019-04-07T02:25:20.898Z,74.49
2019-04-07T02:27:53.094Z,74.56
2019-04-07T02:30:25.865Z,74.78
2019-04-07T02:32:54.397Z,74.98
2019-04-07T02:35:34.730Z,74.87
2019-04-07T02:40:41.020Z,74.47
2019-04-07T02:43:17.866Z,74.34
2019-04-07T02:46:04.373Z,74.32
2019-04-07T02:48:37.522Z,74.23
2019-04-07T02:51:10.406Z,74.25
2019-04-07T02:53:39.193Z,74.17
2019-04-07T02:56:25.134Z,73.96
2019-04-07T02:59:10.114Z,73.97
2019-04-07T03:01:43.420Z,74.14
2019-04-07T03:04:12.769Z,73.68
2019-04-07T03:06:47.501Z,74.13
2019-04-07T03:09:24.118Z,74.12
2019-04-07T03:11:53.841Z,73.87
2019-04-07T03:14:21.652Z,73.84
2019-04-07T03:16:54.223Z,73.90
2019-04-07T03:19:23.384Z,73.76
2019-04-07T03:21:54.221Z,73.69
2019-04-07T03:24:21.297Z,73.84
2019-04-07T03:26:54.147Z,73.77
2019-04-07T03:29:38.480Z,73.97
2019-04-07T03:32:08.495Z,74.06
2019-04-07T03:34:51.516Z,74.11
2019-04-07T03:37:35.319Z,74.14
2019-04-07T03:39:54.737Z,74.22
2019-04-07T03:42:26.811Z,74.11
2019-04-07T03:44:56.643Z,74.04
2019-04-07T03:47:24.233Z,73.89
2019-04-07T03:49:53.506Z,73.74
2019-04-07T03:52:37.875Z,73.75
2019-04-07T03:55:16.989Z,73.87
2019-04-07T03:57:49.409Z,74.06
2019-04-07T04:00:46.053Z,74.18
2019-04-07T04:03:13.356Z,74.22
2019-04-07T04:05:47.700Z,74.07
2019-04-07T04:08:18.721Z,74.07
2019-04-07T04:10:51.927Z,74.04
2019-04-07T04:13:29.286Z,74.00
2019-04-07T04:15:56.813Z,73.91
2019-04-07T04:18:24.215Z,73.97
2019-04-07T04:20:51.673Z,73.87
2019-04-07T04:23:19.802Z,73.79
2019-04-07T04:25:47.089Z,74.03
2019-04-07T04:28:14.308Z,74.09
2019-04-07T04:30:45.425Z,73.93
2019-04-07T04:33:12.901Z,73.37
2019-04-07T04:35:40.927Z,73.53
2019-04-07T04:38:08.139Z,73.05
2019-04-07T04:40:36.041Z,73.09
2019-04-07T04:43:02.915Z,73.72
2019-04-07T04:45:30.324Z,74.39
2019-04-07T04:47:57.791Z,74.37
2019-04-07T04:50:25.805Z,74.27
2019-04-07T04:52:52.700Z,74.35
2019-04-07T04:55:20.158Z,74.32
2019-04-07T04:57:47.989Z,74.89
2019-04-07T05:00:15.790Z,75.81
2019-04-07T05:02:42.567Z,75.86
2019-04-07T05:05:10.898Z,75.63
2019-04-07T05:07:49.852Z,75.55
2019-04-07T05:10:05.688Z,75.85
2019-04-07T05:12:32.399Z,75.81
2019-04-07T05:15:00.375Z,75.96
2019-04-07T05:17:27.521Z,77.03
2019-04-07T05:19:54.996Z,76.97
2019-04-07T05:22:22.558Z,76.76
2019-04-07T05:24:50.372Z,76.62
2019-04-07T05:27:17.427Z,76.63
2019-04-07T05:29:44.738Z,77.05
2019-04-07T05:32:12.248Z,77.32
2019-04-07T05:34:40.239Z,77.22
2019-04-07T05:37:07.615Z,77.11
2019-04-07T05:39:34.654Z,77.09
2019-04-07T05:42:02.294Z,76.74
2019-04-07T05:44:29.566Z,76.70
2019-04-07T05:46:57.042Z,76.71
2019-04-07T05:49:24.464Z,76.71
2019-04-07T05:51:51.907Z,76.78
2019-04-07T05:54:20.753Z,76.88
2019-04-07T05:56:46.829Z,77.01
2019-04-07T05:59:14.778Z,76.87
2019-04-07T06:01:41.746Z,76.84
2019-04-07T06:04:14.315Z,76.83
2019-04-07T06:06:37.069Z,76.64
2019-04-07T06:09:04.176Z,77.03
2019-04-07T06:11:34.010Z,76.83
2019-04-07T06:13:59.096Z,76.97
2019-04-07T06:16:26.761Z,77.08
2019-04-07T06:18:54.000Z,77.45
2019-04-07T06:21:22.215Z,77.42
2019-04-07T06:23:49.588Z,77.66
2019-04-07T06:26:17.333Z,77.47
2019-04-07T06:28:48.484Z,77.23
2019-04-07T06:31:11.819Z,77.21
2019-04-07T06:33:39.453Z,77.02
2019-04-07T06:36:06.969Z,77.36
2019-04-07T06:38:35.995Z,77.93
2019-04-07T06:41:03.001Z,77.90
2019-04-07T06:43:29.316Z,78.01
2019-04-07T06:46:12.907Z,77.86
2019-04-07T06:48:55.110Z,78.07
2019-04-07T06:51:22.351Z,77.84
2019-04-07T06:53:50.520Z,77.71
2019-04-07T06:56:19.658Z,77.67
2019-04-07T06:58:59.169Z,77.61
2019-04-07T07:01:32.422Z,78.39
2019-04-07T07:04:16.770Z,78.21
2019-04-07T07:06:48.263Z,78.07
2019-04-07T07:09:20.112Z,77.79
2019-04-07T07:11:52.594Z,77.79
2019-04-07T07:14:32.888Z,77.87
2019-04-07T07:16:51.072Z,77.67
2019-04-07T07:19:26.345Z,77.59
2019-04-07T07:21:57.968Z,77.73
2019-04-07T07:24:26.492Z,77.88
2019-04-07T07:26:52.930Z,77.94
2019-04-07T07:29:20.346Z,78.13
2019-04-07T07:31:48.331Z,78.09
2019-04-07T07:34:16.314Z,77.79
2019-04-07T07:36:43.248Z,77.89
2019-04-07T07:39:12.553Z,77.81
2019-04-07T07:41:38.897Z,78.10
2019-04-07T07:44:07.850Z,77.89
2019-04-07T07:46:34.360Z,77.63
2019-04-07T07:49:02.078Z,77.87
2019-04-07T07:51:29.388Z,78.10
2019-04-07T07:53:59.769Z,77.21
2019-04-07T07:56:24.513Z,76.06
2019-04-07T07:58:52.979Z,75.96
2019-04-07T08:01:19.948Z,75.74
2019-04-07T08:03:51.723Z,74.87
2019-04-07T08:06:15.151Z,74.24
2019-04-07T08:08:45.226Z,74.12
2019-04-07T08:11:11.218Z,74.35
2019-04-07T08:13:43.356Z,73.57
2019-04-07T08:16:06.375Z,74.50
2019-04-07T08:18:36.174Z,74.27
2019-04-07T08:21:01.243Z,72.06
2019-04-07T08:23:28.723Z,71.04
2019-04-07T08:25:57.851Z,70.37
2019-04-07T08:28:24.334Z,71.58
2019-04-07T08:30:51.947Z,70.33
2019-04-07T08:33:20.198Z,70.09
2019-04-07T08:35:47.953Z,70.69
2019-04-07T08:38:18.632Z,70.39
2019-04-07T08:40:42.137Z,68.77
2019-04-07T08:43:09.740Z,68.88
2019-04-07T08:45:37.198Z,68.66
2019-04-07T08:48:05.159Z,67.24
2019-04-07T08:50:32.258Z,66.71
2019-04-07T08:52:59.735Z,66.88
2019-04-07T08:55:28.215Z,66.77
2019-04-07T08:57:56.253Z,65.36
2019-04-07T09:00:23.821Z,65.87
2019-04-07T09:03:01.788Z,65.37
2019-04-07T09:05:23.039Z,64.03
2019-04-07T09:07:47.215Z,64.32
2019-04-07T09:10:18.725Z,63.38
2019-04-07T09:12:44.116Z,62.81
2019-04-07T09:15:12.837Z,63.02
2019-04-07T09:17:45.967Z,62.29
2019-04-07T09:20:13.517Z,62.28
2019-04-07T09:22:43.590Z,62.36
2019-04-07T09:25:17.215Z,61.57
2019-04-07T09:27:48.611Z,60.85
2019-04-07T09:30:17.306Z,60.26
2019-04-07T09:32:46.041Z,59.54
2019-04-07T09:35:14.449Z,59.67
2019-04-07T09:37:56.302Z,59.89
2019-04-07T09:40:42.467Z,59.71
2019-04-07T09:43:11.164Z,58.79
2019-04-07T09:45:43.662Z,59.99
2019-04-07T09:48:11.483Z,58.65
2019-04-07T09:50:55.443Z,59.73
2019-04-07T09:53:21.523Z,59.21
2019-04-07T09:55:56.859Z,57.18
2019-04-07T09:58:26.294Z,57.35
2019-04-07T10:00:57.700Z,57.28
2019-04-07T10:03:27.860Z,56.61
2019-04-07T10:05:56.292Z,56.43
2019-04-07T10:08:30.316Z,57.58
2019-04-07T10:10:58.358Z,57.31
2019-04-07T10:13:30.680Z,55.62
2019-04-07T10:16:02.361Z,56.92
2019-04-07T10:18:36.730Z,57.01
2019-04-07T10:21:03.241Z,56.95
2019-04-07T10:23:36.435Z,57.39
2019-04-07T10:26:09.466Z,57.73
2019-04-07T10:28:43.037Z,57.46
2019-04-07T10:31:09.673Z,58.12
2019-04-07T10:33:53.927Z,59.37
2019-04-07T10:36:39.416Z,57.20
2019-04-07T10:39:09.430Z,57.69
2019-04-07T10:41:50.902Z,58.31
2019-04-07T10:44:34.072Z,58.34
2019-04-07T10:47:07.159Z,57.68
2019-04-07T10:49:40.683Z,58.05
2019-04-07T10:52:14.705Z,57.88
2019-04-07T10:54:56.370Z,58.76
2019-04-07T10:57:28.948Z,56.80
2019-04-07T10:59:55.789Z,57.39
2019-04-07T11:02:28.006Z,57.93
2019-04-07T11:04:56.338Z,58.23
2019-04-07T11:07:24.953Z,58.94
2019-04-07T11:09:53.077Z,58.39
2019-04-07T11:12:37.881Z,58.44
2019-04-07T11:15:07.103Z,56.42
2019-04-07T11:17:35.017Z,55.98
2019-04-07T11:20:05.428Z,56.59
2019-04-07T11:22:38.434Z,55.37
2019-04-07T11:25:07.851Z,57.54
2019-04-07T11:27:50.417Z,56.10
2019-04-07T11:30:18.120Z,56.96
2019-04-07T11:32:47.857Z,53.99
2019-04-07T11:35:21.115Z,53.93
2019-04-07T11:37:49.241Z,54.81
2019-04-07T11:40:22.645Z,52.48
2019-04-07T11:42:52.379Z,51.87
2019-04-07T11:45:23.705Z,49.92
2019-04-07T11:48:06.574Z,50.81
2019-04-07T11:50:36.326Z,51.19
2019-04-07T11:53:09.092Z,49.94
2019-04-07T11:55:36.621Z,50.14
2019-04-07T11:58:24.055Z,48.74
2019-04-07T12:01:02.431Z,50.51
2019-04-07T12:03:35.602Z,50.52
2019-04-07T12:06:11.631Z,50.65
2019-04-07T12:08:44.594Z,49.52
2019-04-07T12:11:17.976Z,48.97
2019-04-07T12:13:50.951Z,50.30
2019-04-07T12:16:27.739Z,51.19
2019-04-07T12:18:57.875Z,49.94
2019-04-07T12:21:44.950Z,50.37
2019-04-07T12:24:13.543Z,50.66
2019-04-07T12:26:51.773Z,51.17
2019-04-07T12:29:25.454Z,50.14
2019-04-07T12:31:57.857Z,48.63
2019-04-07T12:34:29.630Z,49.31
2019-04-07T12:37:12.276Z,48.87
2019-04-07T12:39:55.498Z,50.11
2019-04-07T12:42:40.305Z,50.83
2019-04-07T12:45:24.245Z,50.98
2019-04-07T12:47:58.360Z,50.13
2019-04-07T12:50:35.453Z,50.44
2019-04-07T12:53:05.918Z,50.69
2019-04-07T12:55:37.569Z,50.71
2019-04-07T12:58:09.784Z,51.10
2019-04-07T13:00:44.618Z,49.95
2019-04-07T13:03:04.445Z,49.38
2019-04-07T13:05:35.510Z,49.88
2019-04-07T13:08:02.749Z,48.31
2019-04-07T13:10:40.614Z,48.60
2019-04-07T13:13:31.647Z,49.87
2019-04-07T13:16:12.290Z,49.27
2019-04-07T13:18:57.568Z,49.80
2019-04-07T13:21:26.706Z,49.96
2019-04-07T13:24:10.767Z,48.47
2019-04-07T13:26:33.601Z,48.61
2019-04-07T13:29:14.600Z,47.71
2019-04-07T13:31:58.362Z,48.30
2019-04-07T13:34:43.943Z,47.70
2019-04-07T13:37:12.436Z,48.13
2019-04-07T13:39:42.924Z,48.99
2019-04-07T13:42:11.342Z,48.85
2019-04-07T13:44:45.563Z,48.85
2019-04-07T13:47:31.933Z,49.44
2019-04-07T13:50:13.762Z,49.47
2019-04-07T13:52:42.437Z,48.49
2019-04-07T13:55:28.507Z,49.03
2019-04-07T13:58:00.675Z,49.38
2019-04-07T14:00:29.094Z,50.59
2019-04-07T14:02:59.095Z,48.75
2019-04-07T14:05:43.051Z,49.82
2019-04-07T14:08:16.053Z,49.49
2019-04-07T14:10:43.847Z,49.66
2019-04-07T14:13:28.244Z,50.18
2019-04-07T14:16:02.913Z,49.24
2019-04-07T14:18:35.643Z,50.27
2019-04-07T14:21:06.526Z,50.85
2019-04-07T14:23:39.450Z,50.09
2019-04-07T14:26:25.839Z,49.67
2019-04-07T14:29:08.653Z,50.76
2019-04-07T14:31:37.930Z,49.65
2019-04-07T14:34:10.749Z,49.71
2019-04-07T14:36:43.918Z,50.57
2019-04-07T14:39:12.852Z,49.65
2019-04-07T14:42:04.972Z,50.20
2019-04-07T14:44:25.922Z,48.91
2019-04-07T14:47:00.034Z,49.63
2019-04-07T14:49:29.806Z,48.49
2019-04-07T14:51:58.540Z,48.97
2019-04-07T14:54:30.549Z,47.77
2019-04-07T14:56:59.764Z,47.77
2019-04-07T14:59:33.056Z,47.37
2019-04-07T15:02:02.085Z,47.76
2019-04-07T15:04:38.638Z,48.60
2019-04-07T15:07:23.670Z,48.17
2019-04-07T15:09:58.508Z,48.10
2019-04-07T15:12:44.155Z,48.86
2019-04-07T15:15:11.894Z,48.92
2019-04-07T15:17:39.274Z,48.41
2019-04-07T15:20:07.457Z,49.23
2019-04-07T15:22:34.599Z,47.46
2019-04-07T15:25:01.511Z,47.46
2019-04-07T15:27:29.657Z,47.82
2019-04-07T15:29:57.810Z,47.68
2019-04-07T15:32:28.514Z,47.79
2019-04-07T15:34:52.639Z,48.27
2019-04-07T15:37:23.574Z,48.38
2019-04-07T15:39:48.378Z,47.41
2019-04-07T15:42:31.417Z,46.84
2019-04-07T15:44:43.667Z,47.57
2019-04-07T15:47:11.442Z,47.76
2019-04-07T15:49:39.923Z,48.52
2019-04-07T15:52:08.885Z,47.17
2019-04-07T15:54:35.081Z,46.68
2019-04-07T15:57:03.696Z,47.23
2019-04-07T15:59:31.398Z,45.56
2019-04-07T16:01:59.261Z,46.30
2019-04-07T16:04:29.296Z,46.40
2019-04-07T16:06:55.446Z,45.54
2019-04-07T16:09:31.478Z,46.39
2019-04-07T16:11:50.893Z,45.22
2019-04-07T16:14:17.661Z,45.48
2019-04-07T16:16:45.131Z,45.65
2019-04-07T16:19:19.608Z,45.21
2019-04-07T16:21:42.791Z,44.97
2019-04-07T16:24:07.876Z,45.15
2019-04-07T16:26:37.060Z,45.30
2019-04-07T16:29:03.316Z,45.59
2019-04-07T16:31:31.146Z,45.97
2019-04-07T16:33:59.176Z,45.86
2019-04-07T16:36:26.653Z,45.95
2019-04-07T16:38:54.876Z,45.32
2019-04-07T16:41:22.292Z,45.78
2019-04-07T16:43:49.435Z,45.37
2019-04-07T16:46:20.949Z,45.67
2019-04-07T16:48:45.122Z,46.02
2019-04-07T16:51:12.219Z,46.85
2019-04-07T16:53:42.077Z,46.99
2019-04-07T16:56:09.132Z,46.38
2019-04-07T16:58:38.745Z,46.24
2019-04-07T17:01:04.645Z,45.97
2019-04-07T17:03:31.810Z,46.93
2019-04-07T17:06:01.468Z,46.81
2019-04-07T17:08:28.840Z,46.55
2019-04-07T17:10:56.696Z,46.04
2019-04-07T17:13:34.675Z,47.26
2019-04-07T17:15:52.850Z,47.30
2019-04-07T17:18:36.839Z,47.12
2019-04-07T17:21:08.518Z,47.21
2019-04-07T17:23:33.529Z,47.25
2019-04-07T17:26:04.814Z,47.37
2019-04-07T17:28:29.181Z,47.83
2019-04-07T17:30:58.199Z,47.60
2019-04-07T17:33:24.441Z,47.18
2019-04-07T17:35:52.899Z,47.25
2019-04-07T17:38:19.221Z,47.26
2019-04-07T17:40:47.234Z,47.67
2019-04-07T17:43:25.304Z,47.42
2019-04-07T17:45:48.114Z,47.71
2019-04-07T17:48:21.329Z,47.97
2019-04-07T17:50:54.157Z,47.78
2019-04-07T17:53:26.477Z,47.71
2019-04-07T17:55:57.617Z,47.80
2019-04-07T17:58:44.208Z,47.95
2019-04-07T18:01:27.704Z,47.86
2019-04-07T18:03:52.813Z,47.92
2019-04-07T18:06:31.326Z,48.61
2019-04-07T18:09:07.885Z,48.02
2019-04-07T18:11:48.307Z,48.32
2019-04-07T18:14:22.293Z,48.68
2019-04-07T18:17:06.514Z,48.59
2019-04-07T18:19:39.575Z,48.92
2019-04-07T18:22:23.385Z,49.14
2019-04-07T18:24:49.502Z,49.28
2019-04-07T18:27:30.675Z,49.39
2019-04-07T18:30:00.587Z,49.89
2019-04-07T18:32:31.845Z,49.89
2019-04-07T18:35:03.021Z,50.21
2019-04-07T18:37:36.423Z,50.23
2019-04-07T18:40:16.662Z,50.27
2019-04-07T18:42:59.821Z,50.46
2019-04-07T18:45:48.027Z,50.84
2019-04-07T18:48:29.470Z,50.63
2019-04-07T18:51:00.925Z,50.98
2019-04-07T18:53:30.681Z,51.19
2019-04-07T18:56:03.472Z,51.20
2019-04-07T18:58:31.189Z,51.39
2019-04-07T19:01:13.738Z,51.53
2019-04-07T19:03:41.824Z,51.70
2019-04-07T19:06:14.783Z,51.82
2019-04-07T19:08:41.714Z,51.94
2019-04-07T19:11:27.637Z,52.08
2019-04-07T19:14:20.363Z,52.16
2019-04-07T19:16:39.465Z,52.23
2019-04-07T19:19:12.727Z,52.46
2019-04-07T19:21:46.306Z,52.48
2019-04-07T19:24:34.646Z,52.74
2019-04-07T19:27:12.711Z,52.80
2019-04-07T19:32:23.418Z,53.05
2019-04-07T19:34:55.354Z,53.10
2019-04-07T19:37:28.319Z,53.07
2019-04-07T19:40:02.488Z,53.08
2019-04-07T19:42:31.862Z,53.18
2019-04-07T19:45:05.694Z,53.30
2019-04-07T19:47:48.064Z,53.30
2019-04-07T19:50:21.471Z,53.42
2019-04-07T19:52:49.850Z,53.41
2019-04-07T19:55:25.636Z,53.28
2019-04-07T19:57:53.209Z,53.26
2019-04-07T20:00:35.781Z,53.22
2019-04-07T20:03:22.216Z,53.30
2019-04-07T20:05:53.287Z,53.25
2019-04-07T20:08:24.982Z,53.31
2019-04-07T20:10:58.858Z,53.29
2019-04-07T20:13:40.887Z,53.44
2019-04-07T20:16:12.964Z,53.64
2019-04-07T20:18:56.790Z,53.85
2019-04-07T20:21:33.939Z,54.49
2019-04-07T20:24:03.639Z,55.02
2019-04-07T20:26:32.638Z,55.20
2019-04-07T20:29:17.195Z,55.34
2019-04-07T20:32:00.522Z,54.85
2019-04-07T20:34:27.532Z,55.06
2019-04-07T20:37:00.651Z,55.37
2019-04-07T20:39:43.769Z,55.83
2019-04-07T20:42:17.432Z,55.93
2019-04-07T20:45:02.756Z,56.04
2019-04-07T20:47:28.523Z,56.97
2019-04-07T20:50:01.608Z,56.79
2019-04-07T20:52:32.706Z,56.97
2019-04-07T20:55:03.762Z,57.42
2019-04-07T20:57:32.983Z,57.40
2019-04-07T21:00:18.631Z,57.77
2019-04-07T21:03:15.189Z,57.50
2019-04-07T21:05:38.450Z,57.62
2019-04-07T21:08:08.950Z,57.46
2019-04-07T21:10:55.990Z,57.54
2019-04-07T21:13:25.249Z,57.90
2019-04-07T21:15:59.440Z,58.09
2019-04-07T21:18:42.275Z,58.52
2019-04-07T21:21:15.029Z,58.82
2019-04-07T21:23:59.593Z,58.69
2019-04-07T21:26:30.927Z,58.63
2019-04-07T21:28:56.736Z,58.42
2019-04-07T21:34:03.110Z,58.40
2019-04-07T21:36:41.522Z,58.32
2019-04-07T21:39:21.937Z,58.11
2019-04-07T21:41:52.067Z,58.16
2019-04-07T21:44:28.542Z,58.14
2019-04-07T21:46:58.117Z,58.17
2019-04-07T21:49:32.794Z,58.01
2019-04-07T21:51:57.722Z,58.39
2019-04-07T21:54:34.165Z,58.41
2019-04-07T21:57:02.335Z,58.36
2019-04-07T21:59:45.764Z,58.99
2019-04-07T22:02:26.474Z,58.63
2019-04-07T22:04:59.602Z,58.69
2019-04-07T22:07:33.683Z,58.81
2019-04-07T22:10:05.248Z,58.43
2019-04-07T22:12:31.969Z,58.22
2019-04-07T22:15:00.281Z,58.78
2019-04-07T22:17:27.691Z,59.15
2019-04-07T22:19:54.548Z,59.30
2019-04-07T22:22:24.085Z,59.73
2019-04-07T22:24:50.642Z,60.70
2019-04-07T22:27:21.159Z,59.90
2019-04-07T22:29:44.912Z,60.13
2019-04-07T22:32:14.880Z,60.99
2019-04-07T22:34:40.138Z,60.54
2019-04-07T22:37:07.926Z,60.94
2019-04-07T22:39:35.586Z,60.97
2019-04-07T22:42:02.956Z,60.99
2019-04-07T22:44:31.372Z,61.51
2019-04-07T22:46:58.596Z,61.17
2019-04-07T22:49:28.465Z,61.47
2019-04-07T22:51:55.413Z,61.39
2019-04-07T22:54:22.072Z,61.54
2019-04-07T22:56:49.350Z,61.18
2019-04-07T22:59:17.560Z,61.11
2019-04-07T23:01:44.382Z,61.56
2019-04-07T23:04:12.020Z,61.88
2019-04-07T23:06:39.283Z,62.14
2019-04-07T23:09:07.797Z,61.81
2019-04-07T23:11:34.267Z,61.66
2019-04-07T23:14:01.794Z,62.58
2019-04-07T23:16:29.500Z,63.01
2019-04-07T23:18:56.735Z,63.71
2019-04-07T23:21:24.672Z,63.50
2019-04-07T23:23:51.759Z,63.94
2019-04-07T23:26:20.113Z,63.86
2019-04-07T23:28:47.230Z,63.45
2019-04-07T23:31:14.499Z,63.30
2019-04-07T23:33:42.085Z,62.62
2019-04-07T23:36:09.552Z,62.47
2019-04-07T23:38:37.828Z,62.46
2019-04-07T23:41:05.414Z,62.06
2019-04-07T23:43:33.438Z,62.33
2019-04-07T23:46:00.363Z,61.88
2019-04-07T23:48:28.414Z,62.19
2019-04-07T23:50:56.154Z,62.03
2019-04-07T23:53:35.215Z,61.93
2019-04-07T23:56:03.752Z,61.73
2019-04-07T23:58:30.234Z,61.41
